Time;durP1;ratioP1;P1;durP2;ratioP2;P2;SDS_P1;SDS_P2;PMS_P1;PMS_P2;Temp;Humidity;BMP_temperature;BMP_pressure;BME280_temperature;BME280_humidity;BME280_pressure;Samples;Min_cycle;Max_cycle;Signal;HPM_P1;HPM_P2
2021/05/13 00:01:22;;;;;;;9.80;7.20;;;7.90;99.90;;;;;;5069651;28;20045;-79
2021/05/13 00:03:53;;;;;;;12.88;8.60;;;7.70;99.90;;;;;;5055348;28;20045;-78
2021/05/13 00:06:21;;;;;;;14.20;8.40;;;7.50;99.90;;;;;;5057937;28;20047;-79
2021/05/13 00:08:57;;;;;;;14.63;8.68;;;7.60;99.90;;;;;;5068125;28;20476;-78
2021/05/13 00:11:30;;;;;;;10.38;8.85;;;7.60;99.90;;;;;;5058149;28;20048;-79
2021/05/13 00:13:58;;;;;;;12.23;9.45;;;7.60;99.90;;;;;;5053419;28;20044;-79
2021/05/13 00:16:30;;;;;;;12.35;8.65;;;7.50;99.90;;;;;;5068098;28;20029;-79
2021/05/13 00:18:57;;;;;;;12.23;8.60;;;7.50;99.90;;;;;;5054163;28;20040;-79
2021/05/13 00:21:23;;;;;;;12.52;8.10;;;7.50;99.90;;;;;;5053996;28;20025;-80
2021/05/13 00:23:50;;;;;;;12.57;9.60;;;7.50;99.90;;;;;;5052565;28;20377;-78
2021/05/13 00:26:24;;;;;;;12.35;9.93;;;7.50;99.90;;;;;;5054754;28;20369;-80
2021/05/13 00:28:50;;;;;;;14.65;9.35;;;7.60;99.90;;;;;;5053962;28;20037;-79
2021/05/13 00:31:16;;;;;;;12.13;8.82;;;7.60;99.90;;;;;;5053868;28;20036;-80
2021/05/13 00:33:43;;;;;;;12.15;8.27;;;7.60;99.90;;;;;;5054092;28;20044;-80
2021/05/13 00:36:09;;;;;;;11.52;8.00;;;7.70;99.90;;;;;;5053789;28;20497;-80
2021/05/13 00:38:35;;;;;;;13.98;8.45;;;7.60;99.90;;;;;;5054270;28;20100;-79
2021/05/13 00:41:01;;;;;;;9.20;7.53;;;7.50;99.90;;;;;;5053390;28;20466;-79
2021/05/13 00:43:27;;;;;;;8.93;7.57;;;7.40;99.90;;;;;;5054214;28;20035;-80
2021/05/13 00:45:54;;;;;;;9.93;7.45;;;7.40;99.90;;;;;;5053973;28;20040;-79
2021/05/13 00:48:21;;;;;;;11.82;7.75;;;7.40;99.90;;;;;;5054030;28;20037;-80
2021/05/13 00:50:47;;;;;;;10.07;7.38;;;7.40;99.90;;;;;;5053648;28;20029;-79
2021/05/13 00:53:13;;;;;;;11.07;7.90;;;7.40;99.90;;;;;;5053649;28;20025;-80
2021/05/13 00:55:39;;;;;;;10.65;8.10;;;7.40;99.90;;;;;;5054162;28;20032;-80
2021/05/13 00:58:07;;;;;;;11.25;7.88;;;7.40;99.90;;;;;;5066015;28;20024;-79
2021/05/13 01:01:22;;;;;;;9.75;7.45;;;7.40;99.90;;;;;;5062669;28;20051;-80
2021/05/13 01:03:20;;;;;;;11.45;7.82;;;7.50;99.90;;;;;;5047611;28;20397;-79
2021/05/13 01:05:46;;;;;;;8.80;7.57;;;7.60;99.90;;;;;;5062584;28;20024;-79
2021/05/13 01:08:13;;;;;;;9.45;7.53;;;7.50;99.90;;;;;;5053089;28;20029;-79
2021/05/13 01:10:40;;;;;;;9.93;7.50;;;7.60;99.90;;;;;;5053030;28;20462;-79
2021/05/13 01:13:15;;;;;;;8.75;7.55;;;7.60;99.90;;;;;;5067257;28;20028;-79
2021/05/13 01:15:45;;;;;;;8.00;6.53;;;7.70;99.90;;;;;;5040080;28;20037;-80
2021/05/13 01:20:40;;;;;;;9.40;6.55;;;7.60;99.90;;;;;;5053510;28;20032;-80
2021/05/13 01:23:10;;;;;;;9.23;6.78;;;7.60;99.90;;;;;;5071204;28;20040;-80
2021/05/13 01:25:51;;;;;;;9.73;6.95;;;7.50;99.90;;;;;;5057394;28;20370;-79
2021/05/13 01:28:25;;;;;;;9.15;8.15;;;7.40;99.90;;;;;;5053445;28;20041;-80
2021/05/13 01:30:53;;;;;;;10.00;7.03;;;7.30;99.90;;;;;;5053045;28;20021;-80
2021/05/13 01:33:22;;;;;;;11.75;8.07;;;7.30;99.90;;;;;;5053380;28;20053;-80
2021/05/13 01:35:48;;;;;;;10.35;6.93;;;7.10;99.90;;;;;;5053371;28;20035;-80
2021/05/13 01:38:18;;;;;;;10.73;7.68;;;7.00;99.90;;;;;;5052630;28;20048;-80
2021/05/13 01:40:56;;;;;;;10.07;7.60;;;7.00;99.90;;;;;;5064482;28;20024;-80
2021/05/13 01:43:24;;;;;;;9.68;8.13;;;7.00;99.90;;;;;;5060542;28;20029;-80
2021/05/13 01:45:50;;;;;;;10.85;7.35;;;7.10;99.90;;;;;;5053280;28;20017;-81
2021/05/13 01:48:17;;;;;;;9.85;8.73;;;7.10;99.90;;;;;;5067164;28;20048;-80
2021/05/13 01:50:47;;;;;;;11.60;8.13;;;7.20;99.90;;;;;;5061303;28;20041;-81
2021/05/13 01:53:14;;;;;;;11.02;8.30;;;7.30;99.90;;;;;;5066015;28;20454;-80
2021/05/13 01:55:40;;;;;;;12.70;7.57;;;7.30;99.90;;;;;;5053098;28;20044;-80
2021/05/13 01:58:07;;;;;;;10.75;6.30;;;7.10;99.90;;;;;;5052261;28;20032;-80
2021/05/13 02:00:34;;;;;;;8.55;6.70;;;6.90;99.90;;;;;;5052865;28;20028;-79
2021/05/13 02:03:04;;;;;;;8.15;6.50;;;6.80;99.90;;;;;;5070433;28;20370;-79
2021/05/13 02:05:31;;;;;;;9.70;7.50;;;6.70;99.90;;;;;;5052714;28;20025;-79
2021/05/13 02:07:57;;;;;;;8.70;7.20;;;6.70;99.90;;;;;;5070459;28;20029;-79
2021/05/13 02:10:24;;;;;;;11.55;7.20;;;6.70;99.90;;;;;;5057975;28;20028;-79
2021/05/13 02:12:50;;;;;;;10.70;7.55;;;6.60;99.90;;;;;;5059986;28;20040;-79
2021/05/13 02:15:19;;;;;;;10.60;8.80;;;6.60;99.90;;;;;;5052162;28;20032;-80
2021/05/13 02:17:45;;;;;;;14.68;9.00;;;6.50;99.90;;;;;;5052405;28;20025;-80
2021/05/13 02:20:14;;;;;;;10.60;8.05;;;6.40;99.90;;;;;;5054876;28;20379;-80
2021/05/13 02:22:41;;;;;;;10.35;7.95;;;6.40;99.90;;;;;;5052158;28;20056;-80
2021/05/13 02:25:09;;;;;;;11.13;8.38;;;6.30;99.90;;;;;;5052081;28;20040;-80
2021/05/13 02:27:37;;;;;;;12.07;9.10;;;6.30;99.90;;;;;;5063078;28;20200;-79
2021/05/13 02:30:05;;;;;;;14.25;8.70;;;6.30;99.90;;;;;;5062915;28;20033;-81
2021/05/13 02:32:32;;;;;;;11.60;8.80;;;6.30;99.90;;;;;;5056013;28;20052;-80
2021/05/13 02:34:58;;;;;;;13.30;9.50;;;6.10;99.90;;;;;;5052407;28;20461;-79
2021/05/13 02:37:24;;;;;;;10.10;7.97;;;6.10;99.90;;;;;;5052333;28;20357;-79
2021/05/13 02:39:50;;;;;;;12.65;9.00;;;6.10;99.90;;;;;;5060535;28;20049;-79
2021/05/13 02:42:17;;;;;;;13.65;8.38;;;6.10;99.90;;;;;;5062324;28;20047;-80
2021/05/13 02:44:44;;;;;;;10.20;8.30;;;6.20;99.90;;;;;;5052040;28;20036;-79
2021/05/13 02:47:10;;;;;;;12.75;8.23;;;6.20;99.90;;;;;;5051710;28;20095;-80
2021/05/13 02:49:37;;;;;;;11.38;9.05;;;6.20;99.90;;;;;;5059224;28;20024;-79
2021/05/13 02:52:04;;;;;;;11.32;8.30;;;6.20;99.90;;;;;;5052087;28;20048;-80
2021/05/13 02:54:30;;;;;;;11.40;9.10;;;6.20;99.90;;;;;;5068736;28;20028;-79
2021/05/13 02:56:57;;;;;;;12.82;8.45;;;6.30;99.90;;;;;;5067513;28;20029;-81
2021/05/13 02:59:32;;;;;;;11.50;9.18;;;6.20;99.90;;;;;;5056776;28;20039;-81
2021/05/13 03:01:58;;;;;;;15.95;10.00;;;6.20;99.90;;;;;;5055830;28;20025;-79
2021/05/13 03:04:24;;;;;;;11.50;9.13;;;6.20;99.90;;;;;;5056224;28;20442;-80
2021/05/13 03:06:51;;;;;;;12.70;9.77;;;6.20;99.90;;;;;;5065406;28;20044;-80
2021/05/13 03:09:18;;;;;;;12.15;9.27;;;6.20;99.90;;;;;;5070743;28;20476;-81
2021/05/13 03:11:45;;;;;;;13.77;8.63;;;6.30;99.90;;;;;;5059468;28;20032;-81
2021/05/13 03:14:11;;;;;;;10.88;8.60;;;6.20;99.90;;;;;;5056261;28;20045;-81
2021/05/13 03:16:37;;;;;;;12.15;8.65;;;6.20;99.90;;;;;;5055921;28;20047;-81
2021/05/13 03:19:06;;;;;;;13.85;9.48;;;6.20;99.90;;;;;;5055484;28;20020;-81
2021/05/13 03:21:42;;;;;;;11.80;9.48;;;6.30;99.90;;;;;;5072198;28;20029;-80
2021/05/13 03:29:13;;;;;;;11.13;9.23;;;6.60;99.90;;;;;;5061951;28;20382;-81
2021/05/13 03:31:40;;;;;;;15.57;8.80;;;6.60;99.90;;;;;;5055568;28;20037;-81
2021/05/13 03:34:06;;;;;;;10.57;8.25;;;6.50;99.90;;;;;;5055082;28;20052;-80
2021/05/13 03:36:33;;;;;;;10.18;8.00;;;6.50;99.90;;;;;;5055637;28;20024;-80
2021/05/13 03:39:04;;;;;;;9.32;7.72;;;6.30;99.90;;;;;;5054953;28;20453;-81
2021/05/13 03:41:31;;;;;;;10.38;8.18;;;6.20;99.90;;;;;;5055641;28;20056;-80
2021/05/13 03:43:57;;;;;;;11.45;8.43;;;6.20;99.90;;;;;;5054799;28;20099;-80
2021/05/13 03:46:23;;;;;;;9.98;7.72;;;6.30;99.90;;;;;;5072172;28;20036;-81
2021/05/13 03:48:49;;;;;;;11.70;7.80;;;6.20;99.90;;;;;;5059224;28;20366;-80
2021/05/13 03:51:16;;;;;;;10.30;8.13;;;6.30;99.90;;;;;;5061964;28;20028;-80
2021/05/13 03:53:43;;;;;;;10.85;8.20;;;6.30;99.90;;;;;;5062621;28;20029;-80
2021/05/13 03:56:11;;;;;;;10.35;8.48;;;6.20;99.90;;;;;;5054486;28;20035;-80
2021/05/13 03:58:42;;;;;;;9.40;8.05;;;6.20;99.90;;;;;;5054838;28;20033;-79
2021/05/13 04:01:11;;;;;;;;;;;6.10;99.90;;;;;;5055865;28;20029;-80
2021/05/13 04:03:38;;;;;;;12.20;7.75;;;6.10;99.90;;;;;;5061831;28;19911;-80
2021/05/13 04:06:04;;;;;;;11.40;8.63;;;6.00;99.90;;;;;;5071078;28;20024;-81
2021/05/13 04:08:31;;;;;;;11.55;9.32;;;6.10;99.90;;;;;;5076811;28;20043;-80
2021/05/13 04:10:57;;;;;;;12.65;9.10;;;6.20;99.90;;;;;;5091254;28;20039;-80
2021/05/13 04:13:23;;;;;;;12.73;8.68;;;6.10;99.90;;;;;;5087475;28;20021;-81
2021/05/13 04:15:50;;;;;;;12.07;8.60;;;6.00;99.90;;;;;;5078519;28;20039;-80
2021/05/13 04:18:17;;;;;;;11.57;9.63;;;6.10;99.90;;;;;;5064009;28;20036;-81
2021/05/13 04:20:43;;;;;;;10.55;9.15;;;6.30;99.90;;;;;;5063105;28;20029;-80
2021/05/13 04:23:10;;;;;;;11.35;9.57;;;6.50;99.90;;;;;;5053996;28;20025;-80
2021/05/13 04:25:37;;;;;;;11.50;8.23;;;6.70;99.90;;;;;;5054590;28;20029;-80
2021/05/13 04:28:04;;;;;;;9.65;8.00;;;6.90;99.90;;;;;;5071686;28;20036;-79
2021/05/13 04:30:30;;;;;;;9.02;6.93;;;7.10;99.90;;;;;;5054605;28;20025;-81
2021/05/13 04:32:57;;;;;;;9.57;7.00;;;7.20;99.90;;;;;;5053727;28;20383;-80
2021/05/13 04:35:24;;;;;;;10.02;6.07;;;7.30;99.90;;;;;;5059546;28;20033;-81
2021/05/13 04:37:51;;;;;;;6.13;4.80;;;7.80;99.90;;;;;;5054947;28;20048;-80
2021/05/13 04:40:17;;;;;;;6.35;4.40;;;8.50;99.90;;;;;;5054709;28;20041;-80
2021/05/13 04:42:43;;;;;;;4.95;3.83;;;9.50;99.90;;;;;;5061026;28;20033;-80
2021/05/13 04:45:10;;;;;;;5.97;3.47;;;10.50;99.90;;;;;;5053656;28;20048;-81
2021/05/13 04:50:09;;;;;;;6.40;3.72;;;11.80;97.00;;;;;;5061629;28;20501;-81
2021/05/13 04:52:37;;;;;;;4.47;3.30;;;12.50;93.50;;;;;;5053951;28;20524;-81
2021/05/13 04:55:05;;;;;;;4.30;2.83;;;13.30;86.50;;;;;;5071026;28;20036;-81
2021/05/13 04:57:32;;;;;;;3.35;3.03;;;12.40;88.60;;;;;;5054289;28;20381;-82
2021/05/13 05:00:02;;;;;;;3.97;3.55;;;11.80;91.80;;;;;;5060642;28;20020;-81
2021/05/13 05:02:29;;;;;;;5.78;2.80;;;12.00;91.30;;;;;;5067752;28;20037;-81
2021/05/13 05:04:55;;;;;;;4.75;3.42;;;11.80;92.20;;;;;;5053179;28;20044;-81
2021/05/13 05:07:21;;;;;;;4.10;3.15;;;11.50;94.30;;;;;;5063869;28;20469;-81
2021/05/13 05:09:48;;;;;;;6.15;4.13;;;12.10;95.50;;;;;;5053691;28;20040;-81
2021/05/13 05:12:14;;;;;;;8.20;5.57;;;12.70;93.10;;;;;;5053584;28;20048;-80
2021/05/13 05:14:41;;;;;;;9.20;4.82;;;12.10;95.10;;;;;;5053432;28;20032;-81
2021/05/13 05:17:08;;;;;;;6.55;4.78;;;11.50;99.40;;;;;;5051284;28;20051;-79
2021/05/13 05:19:35;;;;;;;8.05;4.97;;;11.30;99.90;;;;;;5053669;28;20044;-81
2021/05/13 05:22:02;;;;;;;5.35;4.53;;;10.80;99.90;;;;;;5053956;28;20029;-80
2021/05/13 05:24:28;;;;;;;9.02;5.60;;;10.40;99.90;;;;;;5053685;28;20033;-81
2021/05/13 05:26:54;;;;;;;7.72;5.70;;;10.00;99.90;;;;;;5060262;28;20040;-79
2021/05/13 05:29:21;;;;;;;7.78;5.85;;;10.00;99.90;;;;;;5053625;28;20025;-80
2021/05/13 05:31:47;;;;;;;11.75;6.20;;;10.10;99.90;;;;;;5053456;28;20017;-80
2021/05/13 05:34:13;;;;;;;7.47;6.38;;;10.20;99.90;;;;;;5052301;28;20045;-81
2021/05/13 05:36:39;;;;;;;9.55;6.95;;;10.20;99.90;;;;;;5067488;28;20025;-80
2021/05/13 05:39:06;;;;;;;6.97;6.25;;;10.20;99.90;;;;;;5066275;28;20055;-81
2021/05/13 05:41:32;;;;;;;7.80;6.82;;;10.10;99.90;;;;;;5052676;28;20386;-80
2021/05/13 05:43:58;;;;;;;11.00;6.35;;;10.30;99.90;;;;;;5053001;28;20032;-80
2021/05/13 05:46:24;;;;;;;5.60;5.10;;;10.20;99.90;;;;;;5065694;28;20028;-80
2021/05/13 05:48:51;;;;;;;7.70;5.78;;;10.00;99.90;;;;;;5061001;28;20041;-82
2021/05/13 05:51:17;;;;;;;7.88;5.97;;;9.80;99.90;;;;;;5062404;28;20462;-84
2021/05/13 05:53:43;;;;;;;6.90;5.72;;;9.80;99.90;;;;;;5056636;28;20036;-84
2021/05/13 05:56:10;;;;;;;6.07;5.45;;;9.90;99.90;;;;;;5068988;28;20036;-84
2021/05/13 05:58:36;;;;;;;11.80;7.13;;;9.90;99.90;;;;;;5060006;28;20097;-80
2021/05/13 06:01:03;;;;;;;10.00;7.32;;;10.00;99.90;;;;;;5062647;28;20441;-82
2021/05/13 06:03:29;;;;;;;9.85;6.80;;;10.00;99.90;;;;;;5057096;28;20056;-82
2021/05/13 06:05:56;;;;;;;8.30;6.80;;;10.10;99.90;;;;;;5067251;28;20029;-82
2021/05/13 06:08:22;;;;;;;7.68;6.53;;;10.20;99.90;;;;;;5052097;28;20028;-84
2021/05/13 06:10:48;;;;;;;9.43;7.20;;;10.30;99.90;;;;;;5058528;28;20045;-84
2021/05/13 06:13:14;;;;;;;9.55;8.65;;;10.40;99.90;;;;;;5069658;28;20037;-83
2021/05/13 06:15:41;;;;;;;18.25;16.45;;;10.60;99.90;;;;;;5053638;28;20032;-81
2021/05/13 06:18:08;;;;;;;9.32;8.25;;;10.80;99.90;;;;;;5052512;28;20029;-80
2021/05/13 06:20:35;;;;;;;8.40;6.70;;;10.90;99.90;;;;;;5052382;28;20024;-79
2021/05/13 06:23:03;;;;;;;8.10;7.20;;;10.80;99.90;;;;;;5057787;28;20032;-79
2021/05/13 06:25:29;;;;;;;7.47;6.50;;;11.00;99.90;;;;;;5052696;28;20032;-80
2021/05/13 06:27:58;;;;;;;9.73;6.35;;;12.20;99.90;;;;;;5052253;28;20473;-81
2021/05/13 06:30:26;;;;;;;6.53;5.22;;;13.80;99.90;;;;;;5059967;28;20386;-81
2021/05/13 06:32:52;;;;;;;5.45;4.80;;;15.90;92.80;;;;;;5052075;28;20033;-78
2021/05/13 06:35:20;;;;;;;6.45;4.75;;;16.70;81.90;;;;;;5056559;28;20037;-81
2021/05/13 06:37:47;;;;;;;5.32;4.65;;;18.00;76.80;;;;;;5073379;28;20033;-79
2021/05/13 06:40:15;;;;;;;7.22;4.75;;;18.20;70.80;;;;;;5057145;28;20024;-81
2021/05/13 06:42:42;;;;;;;6.15;4.60;;;18.00;72.50;;;;;;5059580;28;20028;-80
2021/05/13 06:45:09;;;;;;;7.85;4.63;;;18.30;68.70;;;;;;5058933;28;20442;-81
2021/05/13 06:47:38;;;;;;;7.72;4.28;;;19.20;67.20;;;;;;5078315;28;20033;-81
2021/05/13 06:50:06;;;;;;;4.95;4.25;;;19.20;65.20;;;;;;5069413;28;20029;-82
2021/05/13 06:52:32;;;;;;;5.75;4.20;;;19.90;64.10;;;;;;5076427;28;20056;-82
2021/05/13 06:54:58;;;;;;;5.07;3.90;;;20.90;61.10;;;;;;5055729;28;20029;-80
2021/05/13 06:57:25;;;;;;;5.78;4.30;;;20.10;59.60;;;;;;5067324;28;20399;-82
2021/05/13 06:59:51;;;;;;;4.38;3.97;;;20.10;60.80;;;;;;5053956;28;20037;-80
2021/05/13 07:02:17;;;;;;;7.03;4.45;;;19.70;61.50;;;;;;5070348;28;20032;-82
2021/05/13 07:04:44;;;;;;;7.45;3.95;;;20.00;61.10;;;;;;5070760;28;20442;-78
2021/05/13 07:07:10;;;;;;;5.00;4.05;;;20.50;58.80;;;;;;5067878;28;20040;-79
2021/05/13 07:09:36;;;;;;;5.80;4.20;;;21.00;58.80;;;;;;5065770;28;20024;-80
2021/05/13 07:12:03;;;;;;;5.43;3.72;;;21.30;58.40;;;;;;5051987;28;20036;-83
2021/05/13 07:14:29;;;;;;;5.82;4.38;;;20.70;58.40;;;;;;5059928;28;20033;-79
2021/05/13 07:16:55;;;;;;;8.07;3.35;;;21.30;56.90;;;;;;5051378;28;20390;-79
2021/05/13 07:19:21;;;;;;;4.65;3.53;;;18.90;61.90;;;;;;5051480;28;20033;-77
2021/05/13 07:21:48;;;;;;;4.80;3.30;;;20.60;58.90;;;;;;5050630;28;20032;-83
2021/05/13 07:24:15;;;;;;;5.35;3.63;;;21.30;56.10;;;;;;5051205;28;20017;-83
2021/05/13 07:26:41;;;;;;;5.13;3.10;;;20.50;56.30;;;;;;5055116;28;20366;-84
2021/05/13 07:29:08;;;;;;;5.72;3.65;;;19.90;58.60;;;;;;5058044;28;20052;-86
2021/05/13 07:31:35;;;;;;;6.53;3.55;;;19.50;60.60;;;;;;5063021;28;20041;-84
2021/05/13 07:34:01;;;;;;;5.38;3.50;;;20.20;58.30;;;;;;5051467;28;20041;-84
2021/05/13 07:36:28;;;;;;;4.47;2.72;;;20.60;57.30;;;;;;5051582;28;20457;-84
2021/05/13 07:38:55;;;;;;;5.47;3.30;;;21.20;56.50;;;;;;5059405;28;20041;-84
2021/05/13 07:41:22;;;;;;;5.00;3.45;;;20.80;57.50;;;;;;5054299;28;20442;-82
2021/05/13 07:43:50;;;;;;;5.45;3.70;;;19.00;60.50;;;;;;5064589;28;20373;-86
2021/05/13 07:46:17;;;;;;;6.85;3.35;;;19.10;59.90;;;;;;5055056;28;20461;-85
2021/05/13 07:48:44;;;;;;;5.75;4.00;;;19.60;60.50;;;;;;5054926;28;20377;-85
2021/05/13 07:51:10;;;;;;;6.03;3.67;;;20.10;59.70;;;;;;5055197;28;20033;-86
2021/05/13 07:53:36;;;;;;;4.43;2.90;;;20.40;59.40;;;;;;5055487;28;20045;-86
2021/05/13 07:56:03;;;;;;;7.97;4.03;;;20.90;56.90;;;;;;5054941;28;20033;-84
2021/05/13 07:58:29;;;;;;;6.28;4.43;;;20.10;58.60;;;;;;5055006;28;20045;-86
2021/05/13 08:00:55;;;;;;;6.63;4.40;;;20.10;58.40;;;;;;5054906;28;20041;-86
2021/05/13 08:03:21;;;;;;;4.75;3.78;;;20.10;58.50;;;;;;5067128;28;20466;-84
2021/05/13 08:05:47;;;;;;;6.13;3.83;;;19.20;60.90;;;;;;5071646;28;20095;-86
2021/05/13 08:08:14;;;;;;;6.28;3.88;;;19.80;58.20;;;;;;5054973;28;20377;-86
2021/05/13 08:10:40;;;;;;;4.78;3.40;;;20.40;59.00;;;;;;5064998;28;20032;-85
2021/05/13 08:13:06;;;;;;;6.10;3.28;;;21.50;56.30;;;;;;5054816;28;20036;-86
2021/05/13 08:15:32;;;;;;;5.45;3.38;;;22.80;54.70;;;;;;5053498;28;20028;-86
2021/05/13 08:17:58;;;;;;;6.85;3.80;;;23.20;53.40;;;;;;5054981;28;20045;-81
2021/05/13 08:20:25;;;;;;;4.85;3.42;;;21.70;54.90;;;;;;5054698;28;20045;-87
2021/05/13 08:22:51;;;;;;;5.88;3.50;;;21.80;54.90;;;;;;5054778;28;20025;-84
2021/05/13 08:25:20;;;;;;;6.45;3.10;;;22.30;55.00;;;;;;5056745;28;20033;-85
2021/05/13 08:27:49;;;;;;;8.13;3.15;;;22.30;53.20;;;;;;5070999;28;20361;-84
2021/05/13 08:30:16;;;;;;;4.85;2.92;;;22.10;52.30;;;;;;5064990;28;20465;-83
2021/05/13 08:32:42;;;;;;;6.00;3.10;;;21.90;52.80;;;;;;5063360;28;20122;-84
2021/05/13 08:35:09;;;;;;;4.82;2.92;;;22.30;53.90;;;;;;5054357;28;20052;-85
2021/05/13 08:37:36;;;;;;;5.07;2.58;;;22.60;52.10;;;;;;5058894;28;20037;-84
2021/05/13 08:40:04;;;;;;;4.03;2.28;;;21.70;53.80;;;;;;5065609;28;20025;-82
2021/05/13 08:42:30;;;;;;;4.00;2.70;;;21.50;53.50;;;;;;5054123;28;20037;-84
2021/05/13 08:44:57;;;;;;;5.50;2.60;;;21.70;53.90;;;;;;5054778;28;20044;-83
2021/05/13 08:47:23;;;;;;;7.05;2.30;;;21.80;52.80;;;;;;5054090;28;20037;-84
2021/05/13 08:49:49;;;;;;;4.78;2.28;;;21.90;53.10;;;;;;5054262;28;20497;-85
2021/05/13 08:52:17;;;;;;;7.45;1.95;;;22.40;51.80;;;;;;5053173;28;20037;-84
2021/05/13 08:54:53;;;;;;;3.35;2.17;;;22.60;50.60;;;;;;5066200;28;20047;-84
2021/05/13 08:57:19;;;;;;;3.95;1.77;;;21.50;52.00;;;;;;5072044;28;20192;-86
2021/05/13 08:59:46;;;;;;;7.20;2.22;;;21.80;52.10;;;;;;5053787;28;20040;-86
2021/05/13 09:02:14;;;;;;;3.63;1.60;;;22.70;49.70;;;;;;5062347;28;20048;-86
2021/05/13 09:04:43;;;;;;;5.70;2.08;;;21.70;49.00;;;;;;5073268;28;20037;-83
2021/05/13 09:07:39;;;;;;;3.63;1.73;;;21.50;50.10;;;;;;5055035;28;20036;-84
2021/05/13 09:10:09;;;;;;;7.28;2.10;;;21.20;51.50;;;;;;5060710;28;20057;-83
2021/05/13 09:12:37;;;;;;;6.55;1.80;;;20.80;50.70;;;;;;5073549;28;20040;-84
2021/05/13 09:15:07;;;;;;;5.20;2.08;;;20.60;50.60;;;;;;5093812;28;20021;-80
2021/05/13 09:17:34;;;;;;;4.95;1.92;;;21.10;51.40;;;;;;5076365;28;20032;-86
2021/05/13 09:20:02;;;;;;;7.85;1.95;;;22.30;50.00;;;;;;5062613;28;20040;-83
2021/05/13 09:22:30;;;;;;;3.95;2.00;;;23.20;48.00;;;;;;5068601;28;20035;-85
2021/05/13 09:25:04;;;;;;;5.90;1.63;;;23.00;48.20;;;;;;5053249;28;20037;-84
2021/05/13 09:27:40;;;;;;;5.85;1.70;;;22.90;46.80;;;;;;5052753;28;20386;-85
2021/05/13 09:30:08;;;;;;;6.03;1.60;;;22.90;48.30;;;;;;5052729;28;20478;-85
2021/05/13 09:32:35;;;;;;;6.88;1.75;;;22.70;48.30;;;;;;5072951;28;20032;-87
2021/05/13 09:35:11;;;;;;;4.13;1.50;;;22.20;47.00;;;;;;5056099;28;20031;-83
2021/05/13 09:37:39;;;;;;;3.97;1.70;;;22.00;47.30;;;;;;5053681;28;20033;-85
2021/05/13 09:40:06;;;;;;;4.70;1.67;;;22.00;49.30;;;;;;5052581;28;20029;-85
2021/05/13 09:42:33;;;;;;;5.80;2.53;;;23.00;48.30;;;;;;5052448;28;20032;-86
2021/05/13 09:45:02;;;;;;;4.50;1.83;;;24.10;47.50;;;;;;5059237;28;20485;-85
2021/05/13 09:47:29;;;;;;;4.32;1.65;;;23.80;46.00;;;;;;5063831;28;20064;-83
2021/05/13 09:50:08;;;;;;;6.97;1.73;;;21.90;47.70;;;;;;5061342;28;20039;-85
2021/05/13 09:52:45;;;;;;;6.05;2.45;;;21.90;48.70;;;;;;5065991;28;20029;-85
2021/05/13 09:55:33;;;;;;;7.32;2.60;;;23.00;47.60;;;;;;5063376;28;20044;-86
2021/05/13 09:58:00;;;;;;;5.47;1.73;;;23.50;46.20;;;;;;5050230;28;20064;-85
2021/05/13 10:00:32;;;;;;;4.10;1.35;;;22.90;45.50;;;;;;5055271;28;20037;-85
2021/05/13 10:02:59;;;;;;;2.63;1.15;;;23.20;45.70;;;;;;5054019;28;20025;-86
2021/05/13 10:05:26;;;;;;;4.80;1.92;;;23.20;43.40;;;;;;5068493;28;20032;-84
2021/05/13 10:07:53;;;;;;;4.60;2.05;;;22.90;46.70;;;;;;5063144;28;20025;-83
2021/05/13 10:10:19;;;;;;;4.13;1.30;;;23.00;46.10;;;;;;5054855;28;20041;-86
2021/05/13 10:12:47;;;;;;;5.55;1.92;;;23.40;44.10;;;;;;5055863;28;20419;-82
2021/05/13 10:15:16;;;;;;;2.78;1.10;;;22.50;44.40;;;;;;5065360;28;20040;-80
2021/05/13 10:17:45;;;;;;;3.55;1.70;;;21.00;47.20;;;;;;5057224;28;20040;-80
2021/05/13 10:20:19;;;;;;;6.30;2.25;;;20.70;48.10;;;;;;5057422;28;20032;-84
2021/05/13 10:22:47;;;;;;;4.93;2.25;;;20.20;48.60;;;;;;5058628;28;20036;-83
2021/05/13 10:25:31;;;;;;;6.38;1.20;;;20.10;48.10;;;;;;5059723;28;20048;-82
2021/05/13 10:28:02;;;;;;;4.07;1.40;;;20.00;47.70;;;;;;5058577;28;20033;-81
2021/05/13 10:30:33;;;;;;;5.10;1.30;;;19.40;49.00;;;;;;5055229;28;20374;-81
2021/05/13 10:33:10;;;;;;;4.97;1.42;;;20.10;48.80;;;;;;5075771;28;20048;-82
2021/05/13 10:35:38;;;;;;;6.50;1.83;;;20.20;48.50;;;;;;5055410;28;20036;-80
2021/05/13 10:38:13;;;;;;;6.78;1.95;;;20.50;49.10;;;;;;5053834;28;20067;-83
2021/05/13 10:43:10;;;;;;;7.30;3.72;;;20.50;48.70;;;;;;5057704;28;20041;-82
2021/05/13 10:45:46;;;;;;;4.78;2.15;;;20.70;48.70;;;;;;5054840;28;20517;-82
2021/05/13 10:48:23;;;;;;;3.33;1.70;;;20.80;48.80;;;;;;5057289;28;20049;-84
2021/05/13 10:51:00;;;;;;;3.20;1.40;;;20.70;48.10;;;;;;5072796;28;20029;-82
2021/05/13 10:56:32;;;;;;;5.72;1.52;;;19.80;50.70;;;;;;5051546;28;20037;-80
2021/05/13 10:59:08;;;;;;;3.20;1.13;;;19.80;49.80;;;;;;5060867;28;20044;-81
2021/05/13 11:01:48;;;;;;;6.15;1.95;;;19.70;49.70;;;;;;5067477;28;20043;-80
2021/05/13 11:04:21;;;;;;;3.05;1.70;;;19.50;51.00;;;;;;5057629;28;20463;-81
2021/05/13 11:06:49;;;;;;;5.25;1.40;;;19.40;51.50;;;;;;5052504;28;20037;-81
2021/05/13 11:09:41;;;;;;;4.65;0.95;;;19.30;51.30;;;;;;5051513;28;20386;-81
2021/05/13 11:12:15;;;;;;;3.67;1.00;;;19.20;52.40;;;;;;5051075;28;20091;-80
2021/05/13 11:20:30;;;;;;;4.53;2.05;;;17.50;59.60;;;;;;5055054;28;20040;-81
2021/05/13 11:23:27;;;;;;;7.10;2.72;;;17.40;60.20;;;;;;5070242;28;20064;-79
2021/05/13 11:25:58;;;;;;;6.85;1.58;;;17.50;59.60;;;;;;5054126;28;20398;-81
2021/05/13 11:28:42;;;;;;;2.92;1.25;;;17.40;57.60;;;;;;5055330;28;20037;-80
2021/05/13 11:31:12;;;;;;;3.60;0.77;;;17.20;56.20;;;;;;5058724;28;20020;-79
2021/05/13 11:33:47;;;;;;;3.67;1.05;;;17.20;55.20;;;;;;5072430;28;20055;-78
2021/05/13 11:36:24;;;;;;;4.10;0.90;;;17.10;55.30;;;;;;5070409;28;20389;-80
2021/05/13 11:38:52;;;;;;;2.70;0.80;;;17.20;54.50;;;;;;5059638;28;20423;-80
2021/05/13 11:41:19;;;;;;;3.78;0.77;;;17.10;54.20;;;;;;5063484;28;20362;-80
2021/05/13 11:43:46;;;;;;;3.63;0.77;;;17.10;54.20;;;;;;5058409;28;20462;-81
2021/05/13 11:46:17;;;;;;;1.85;0.60;;;17.40;52.90;;;;;;5054717;28;20029;-81
2021/05/13 11:48:44;;;;;;;;;;;17.50;52.10;;;;;;5056208;28;20366;-81
2021/05/13 11:51:32;;;;;;;2.63;1.05;;;17.30;53.10;;;;;;5054784;28;20277;-81
2021/05/13 11:54:04;;;;;;;2.28;0.90;;;17.70;52.00;;;;;;5066203;28;20048;-80
2021/05/13 11:56:33;;;;;;;2.58;0.90;;;17.90;51.10;;;;;;5058513;28;20041;-80
2021/05/13 11:59:00;;;;;;;4.88;1.00;;;18.10;50.50;;;;;;5068904;28;20056;-81
2021/05/13 12:01:30;;;;;;;4.53;1.00;;;18.30;49.40;;;;;;5054660;28;20037;-81
2021/05/13 12:03:59;;;;;;;4.60;0.50;;;18.70;50.10;;;;;;5054775;28;20032;-81
2021/05/13 12:06:27;;;;;;;2.33;0.73;;;19.00;48.80;;;;;;5054312;28;20776;-81
2021/05/13 12:08:54;;;;;;;2.53;1.00;;;19.20;48.10;;;;;;5069398;28;20045;-81
2021/05/13 12:11:26;;;;;;;3.28;0.73;;;19.70;48.40;;;;;;5054436;28;20024;-82
2021/05/13 12:14:06;;;;;;;2.83;0.57;;;19.50;47.70;;;;;;5059627;28;20041;-82
2021/05/13 12:16:33;;;;;;;1.80;0.52;;;19.60;47.20;;;;;;5067329;28;20044;-78
2021/05/13 12:19:04;;;;;;;0.68;0.40;;;19.10;47.90;;;;;;5054912;28;20386;-79
2021/05/13 12:21:31;;;;;;;3.00;0.60;;;18.70;48.60;;;;;;5072422;28;20048;-81
2021/05/13 12:23:58;;;;;;;3.17;0.60;;;18.70;48.20;;;;;;5054135;28;20043;-80
2021/05/13 12:26:29;;;;;;;1.33;0.30;;;18.80;49.90;;;;;;5053424;28;20037;-81
2021/05/13 12:28:55;;;;;;;1.33;0.30;;;18.80;50.50;;;;;;5054425;28;20382;-81
2021/05/13 12:31:33;;;;;;;2.40;0.55;;;18.80;49.20;;;;;;5057091;28;20385;-82
2021/05/13 12:34:05;;;;;;;2.50;0.38;;;18.70;50.30;;;;;;5061020;28;20045;-81
2021/05/13 12:36:32;;;;;;;3.20;0.63;;;18.70;50.30;;;;;;5062485;28;20037;-80
2021/05/13 12:38:59;;;;;;;2.45;1.00;;;18.60;51.80;;;;;;5063675;28;20036;-82
2021/05/13 12:41:28;;;;;;;2.75;0.65;;;18.40;52.60;;;;;;5062069;28;20032;-81
2021/05/13 12:44:08;;;;;;;3.40;0.70;;;18.10;52.90;;;;;;5066971;28;20037;-82
2021/05/13 12:46:45;;;;;;;4.07;0.70;;;17.80;53.00;;;;;;5069080;28;20029;-81
2021/05/13 12:49:18;;;;;;;1.92;0.63;;;17.60;52.80;;;;;;5053662;28;20052;-80
2021/05/13 12:51:57;;;;;;;1.95;1.02;;;17.30;53.40;;;;;;5054038;28;20025;-80
2021/05/13 12:54:23;;;;;;;1.92;0.50;;;17.00;53.60;;;;;;5062037;28;20040;-80
2021/05/13 12:56:50;;;;;;;3.70;0.82;;;16.80;54.00;;;;;;5054980;28;20029;-79
2021/05/13 12:59:16;;;;;;;5.10;0.60;;;16.80;55.40;;;;;;5053860;28;20033;-81
2021/05/13 13:01:55;;;;;;;3.63;0.82;;;16.70;55.70;;;;;;5054119;28;20453;-79
2021/05/13 13:04:21;;;;;;;3.08;0.70;;;16.60;56.00;;;;;;5053915;28;20029;-80
2021/05/13 13:06:55;;;;;;;1.65;0.70;;;16.70;57.30;;;;;;5062759;28;20047;-80
2021/05/13 13:09:35;;;;;;;3.38;1.05;;;16.90;55.70;;;;;;5060915;28;20064;-81
2021/05/13 13:12:08;;;;;;;3.90;0.63;;;16.90;56.10;;;;;;5053749;28;20040;-81
2021/05/13 13:17:26;;;;;;;1.85;0.50;;;16.50;55.90;;;;;;5065961;28;20470;-80
2021/05/13 13:20:09;;;;;;;1.73;0.55;;;16.50;56.10;;;;;;5056356;28;20045;-81